CDT,Max TemperatureF,Mean TemperatureF,Min TemperatureF,Max Dew PointF,MeanDew PointF,Min DewpointF,Max Humidity, Mean Humidity, Min Humidity, Max Sea Level PressureIn, Mean Sea Level PressureIn, Min Sea Level PressureIn, Max VisibilityMiles, Mean VisibilityMiles, Min VisibilityMiles, Max Wind SpeedMPH, Mean Wind SpeedMPH, Max Gust SpeedMPH,PrecipitationIn, CloudCover, Events, WindDirDegrees
2013-10-1,86,72,59,64,59,50,93,65,44,29.91,29.86,29.81,10,10,10,17,10,24,0.00,0,,147
2013-10-2,86,76,69,70,67,64,93,75,53,29.98,29.89,29.81,10,9,7,17,12,22,0.00,4,,154
2013-10-3,89,80,72,70,67,64,84,67,48,29.82,29.75,29.66,10,10,10,17,14,26,0.00,2,,168
2013-10-4,89,76,61,68,65,50,90,69,45,29.94,29.77,29.70,10,10,3,18,14,30,0.31,2,Rain-Thunderstorm,175
2013-10-5,66,57,48,50,38,32,77,53,28,30.13,30.03,29.95,10,10,10,16,12,22,0.01,3,Rain-Thunderstorm,325
2013-10-6,48,47,46,37,35,34,68,64,63,30.08,30.04,30.00,10,10,10,7,6,,0.00,0,,272
2013-10-7,73,64,55,44,40,34,64,41,24,30.20,30.13,30.07,10,10,10,8,3,,0.00,0,,144
2013-10-8,75,62,50,49,46,42,74,52,33,30.10,30.04,29.96,10,10,10,16,10,21,0.00,0,,147
2013-10-9,80,66,54,55,51,47,80,61,40,30.03,29.98,29.94,10,10,10,18,11,24,0.00,0,,149
2013-10-10,81,70,59,59,55,52,78,62,45,30.00,29.92,29.80,10,10,10,22,13,26,0.00,0,,152
2013-10-11,84,72,59,63,52,41,69,49,24,29.85,29.78,29.72,10,10,10,17,11,25,0.00,0,,189
2013-10-12,75,64,53,47,42,39,72,49,29,30.18,30.05,29.86,10,10,10,21,13,26,0.00,0,,47
2013-10-13,70,58,48,54,48,40,80,57,48,30.29,30.22,30.16,10,10,10,18,9,24,0.00,6,,85
2013-10-14,66,62,59,65,58,52,94,84,65,30.15,30.01,29.84,10,8,2,22,14,28,0.48,7,Rain,142
2013-10-15,62,54,46,59,47,40,94,74,46,30.15,30.01,29.88,10,8,2,23,12,29,0.55,3,Rain-Thunderstorm,349
2013-10-16,53,46,39,43,39,35,92,78,59,30.19,30.13,30.08,10,10,9,8,3,,0.01,4,,328
2013-10-17,66,52,37,45,40,35,97,74,37,30.07,30.03,29.95,10,9,2,9,2,,0.00,0,,220
2013-10-18,46,42,36,42,37,33,89,82,68,30.21,30.11,30.03,10,10,9,16,10,23,0.15,6,Rain,15
2013-10-19,66,49,32,41,35,29,92,68,32,30.18,30.08,29.97,10,10,7,13,3,20,0.00,0,,226
2013-10-20,72,58,44,46,40,36,76,55,32,29.96,29.89,29.80,10,10,10,13,5,21,0.00,1,,178
2013-10-21,55,50,48,44,39,32,80,64,42,30.15,30.04,29.92,10,10,10,18,6,24,0.00,3,,36
2013-10-22,,,,,,,,,,,,,,,,,,,,,,
2013-10-23,69,58,45,45,43,41,90,62,38,30.10,30.04,29.99,10,10,10,12,7,18,0.00,0,,193
2013-10-24,57,49,41,43,33,30,89,59,36,30.42,30.31,30.10,10,10,10,16,9,23,0.00,0,,51
2013-10-25,60,46,33,39,32,28,85,57,34,30.47,30.35,30.19,10,10,10,15,7,21,0.00,0,,140
2013-10-26,66,56,43,52,44,33,83,68,54,30.18,30.14,30.10,10,10,10,12,6,,0.00,4,,40
2013-10-27,66,48,30,36,31,25,92,57,21,30.16,30.07,29.96,10,10,10,8,3,,0.00,0,,173
2013-10-28,70,60,50,58,53,42,100,79,60,30.09,30.02,29.97,10,8,1,18,9,23,0.00,6,Rain,156
2013-10-29,78,70,62,66,64,59,90,79,61,29.96,29.92,29.87,10,10,8,17,10,24,0.01,7,Rain,184
2013-10-30,73,68,64,67,65,59,94,85,78,29.91,29.78,29.69,10,9,2,18,12,28,0.00,7,Rain,167
2013-10-31,68,58,50,63,52,38,94,82,34,29.78,29.65,29.55,10,9,2,20,10,29,0.15,6,Rain,307